Aktuální počasí v Česku a ve světě - METAR

Seznam meteostanic umístěných nejčasteji na letišti v ČR a ve světě

Vyhledat místa podle abecedy:
A B C D E F G H I J K L M N O P Q R S T U V W X Y Z

Filtrovat:

ID stanice:
a/nebo
Název místa (fulltext):
 
Místo (ID)Naposledy načteno 
Odense (EKOD) 15.04.2021 13:50 UTC Zobrazit METAR
EKOD 151350Z 01009KT 340V040 9999 FEW020 SCT200 09/M05 Q1031
Odesa (UKOO) 01.02.2018 08:00 UTC Zobrazit METAR
UKOO 010800Z CAVOK 07/04 Q1018 R16/190056 NOSIG
Osijek (LDOS) 15.04.2021 14:00 UTC Zobrazit METAR
LDOS 151400Z 30010KT 9999 FEW033 SCT037 08/01 Q1021
Oslo (ENGM) 15.04.2021 13:50 UTC Zobrazit METAR
ENGM 151350Z 02009KT 340V070 CAVOK 09/M07 Q1033 NOSIG
Ostend (EBOS) 15.04.2021 13:50 UTC Zobrazit METAR
EBOS 151350Z 03015KT 9999 FEW024 08/02 Q1031 NOSIG
Ostrava (LKMT) 15.04.2021 14:00 UTC Zobrazit METAR
LKMT 151400Z 31006KT 280V350 9999 -RA SCT011 BKN036 03/01 Q1020 NOSIG
Ottawa (CYOW) 15.04.2021 14:00 UTC Zobrazit METAR
CYOW 151400Z 15005KT 15SM -RA BKN042 OVC060 09/07 A2974 RMK SC7SC1 SLP074
Ouagadougou (DFFD) 15.04.2021 14:00 UTC Zobrazit METAR
DFFD 151400Z VRB04KT 9999 FEW020 SCT026 39/16 Q1007 NOSIG
Oulu (EFOU) 15.04.2021 13:50 UTC Zobrazit METAR
EFOU 151350Z AUTO 27007KT 210V320 CAVOK 06/M04 Q1030
Reklama

Reklama


💌 Počasí na Váš email

Emaily jsou bez reklamy a bez spamu



Odhlásit newsletter



Další české internetové stránky (nejen) o počasí najdete v katalogu TOPlist - weby o počasí nebo vyhledejte na internetu, co jste tu na 🌞 Slunečnu ⛅ zatím nenašli:
⭐ Přidat Slunečno.cz do oblíbených | 🏠 Nastavit Slunečno.cz jako HOMEPAGE

⬆️ Posunout stránku nahoru ⬆️
Reklama